sensor_id;sensor_type;location;lat;lon;timestamp;P1;durP1;ratioP1;P2;durP2;ratioP2
57345;SDS011;43181;50.974;18.244;2022-09-20T00:00:47;0.90;;;0.60;;
57345;SDS011;43181;50.974;18.244;2022-09-20T00:03:14;1.20;;;1.10;;
57345;SDS011;43181;50.974;18.244;2022-09-20T00:05:41;1.80;;;1.10;;
57345;SDS011;43181;50.974;18.244;2022-09-20T00:08:09;1.40;;;1.30;;
57345;SDS011;43181;50.974;18.244;2022-09-20T00:10:36;2.00;;;1.90;;
57345;SDS011;43181;50.974;18.244;2022-09-20T00:13:07;2.50;;;1.50;;
57345;SDS011;43181;50.974;18.244;2022-09-20T00:15:38;2.40;;;1.20;;
57345;SDS011;43181;50.974;18.244;2022-09-20T00:18:05;0.50;;;0.50;;
57345;SDS011;43181;50.974;18.244;2022-09-20T00:20:30;1.20;;;1.10;;
57345;SDS011;43181;50.974;18.244;2022-09-20T00:22:56;0.90;;;0.80;;
57345;SDS011;43181;50.974;18.244;2022-09-20T00:25:21;1.50;;;1.30;;
57345;SDS011;43181;50.974;18.244;2022-09-20T00:27:47;2.60;;;2.30;;
57345;SDS011;43181;50.974;18.244;2022-09-20T00:30:13;4.50;;;1.30;;
57345;SDS011;43181;50.974;18.244;2022-09-20T00:32:41;1.00;;;0.90;;
57345;SDS011;43181;50.974;18.244;2022-09-20T00:35:07;1.60;;;1.50;;
57345;SDS011;43181;50.974;18.244;2022-09-20T00:37:38;4.10;;;2.10;;
57345;SDS011;43181;50.974;18.244;2022-09-20T00:40:06;4.80;;;2.30;;
57345;SDS011;43181;50.974;18.244;2022-09-20T00:42:34;4.00;;;2.20;;
57345;SDS011;43181;50.974;18.244;2022-09-20T00:45:01;2.70;;;1.70;;
57345;SDS011;43181;50.974;18.244;2022-09-20T00:47:32;1.10;;;0.90;;
57345;SDS011;43181;50.974;18.244;2022-09-20T00:50:16;3.60;;;1.60;;
57345;SDS011;43181;50.974;18.244;2022-09-20T00:52:51;0.80;;;0.80;;
57345;SDS011;43181;50.974;18.244;2022-09-20T00:55:21;1.30;;;1.20;;
57345;SDS011;43181;50.974;18.244;2022-09-20T00:57:47;1.20;;;1.10;;
57345;SDS011;43181;50.974;18.244;2022-09-20T01:00:12;1.60;;;1.40;;
57345;SDS011;43181;50.974;18.244;2022-09-20T01:02:39;1.10;;;1.10;;
57345;SDS011;43181;50.974;18.244;2022-09-20T01:05:07;2.90;;;2.20;;
57345;SDS011;43181;50.974;18.244;2022-09-20T01:07:34;1.60;;;0.90;;
57345;SDS011;43181;50.974;18.244;2022-09-20T01:09:59;3.50;;;1.20;;
57345;SDS011;43181;50.974;18.244;2022-09-20T01:12:26;2.20;;;2.00;;
57345;SDS011;43181;50.974;18.244;2022-09-20T01:14:54;2.30;;;2.00;;
57345;SDS011;43181;50.974;18.244;2022-09-20T01:17:22;4.20;;;2.40;;
57345;SDS011;43181;50.974;18.244;2022-09-20T01:22:49;4.70;;;2.00;;
57345;SDS011;43181;50.974;18.244;2022-09-20T01:28:32;2.00;;;1.90;;
57345;SDS011;43181;50.974;18.244;2022-09-20T01:31:02;2.40;;;1.70;;
57345;SDS011;43181;50.974;18.244;2022-09-20T01:34:05;0.30;;;0.30;;
57345;SDS011;43181;50.974;18.244;2022-09-20T01:41:28;1.70;;;1.30;;
57345;SDS011;43181;50.974;18.244;2022-09-20T01:46:37;4.90;;;1.50;;
57345;SDS011;43181;50.974;18.244;2022-09-20T02:32:38;0.80;;;0.80;;
57345;SDS011;43181;50.974;18.244;2022-09-20T02:35:38;1.70;;;0.90;;
57345;SDS011;43181;50.974;18.244;2022-09-20T02:38:18;1.00;;;1.00;;
57345;SDS011;43181;50.974;18.244;2022-09-20T02:41:25;0.70;;;0.60;;
57345;SDS011;43181;50.974;18.244;2022-09-20T02:49:11;0.70;;;0.50;;
57345;SDS011;43181;50.974;18.244;2022-09-20T02:57:08;1.50;;;0.80;;
57345;SDS011;43181;50.974;18.244;2022-09-20T03:00:04;0.70;;;0.70;;
57345;SDS011;43181;50.974;18.244;2022-09-20T03:19:41;4.50;;;1.00;;
57345;SDS011;43181;50.974;18.244;2022-09-20T03:22:33;1.70;;;1.60;;
57345;SDS011;43181;50.974;18.244;2022-09-20T03:25:12;1.70;;;1.10;;
57345;SDS011;43181;50.974;18.244;2022-09-20T03:27:42;1.70;;;1.00;;
57345;SDS011;43181;50.974;18.244;2022-09-20T03:39:12;1.40;;;1.30;;
57345;SDS011;43181;50.974;18.244;2022-09-20T03:50:39;7.20;;;1.30;;
57345;SDS011;43181;50.974;18.244;2022-09-20T03:56:11;0.80;;;0.70;;
57345;SDS011;43181;50.974;18.244;2022-09-20T04:05:32;1.10;;;1.00;;
57345;SDS011;43181;50.974;18.244;2022-09-20T04:08:08;0.40;;;0.40;;
57345;SDS011;43181;50.974;18.244;2022-09-20T04:13:37;1.10;;;0.70;;
57345;SDS011;43181;50.974;18.244;2022-09-20T04:16:18;2.40;;;1.50;;
57345;SDS011;43181;50.974;18.244;2022-09-20T04:21:54;0.90;;;0.90;;
57345;SDS011;43181;50.974;18.244;2022-09-20T04:26:49;0.40;;;0.40;;
57345;SDS011;43181;50.974;18.244;2022-09-20T04:32:16;2.20;;;1.30;;
57345;SDS011;43181;50.974;18.244;2022-09-20T04:34:53;4.60;;;1.50;;
57345;SDS011;43181;50.974;18.244;2022-09-20T04:37:45;1.40;;;1.20;;
57345;SDS011;43181;50.974;18.244;2022-09-20T04:40:14;0.70;;;0.70;;
57345;SDS011;43181;50.974;18.244;2022-09-20T04:43:04;4.20;;;1.40;;
57345;SDS011;43181;50.974;18.244;2022-09-20T05:00:09;2.00;;;1.80;;
57345;SDS011;43181;50.974;18.244;2022-09-20T05:02:51;1.20;;;0.80;;
57345;SDS011;43181;50.974;18.244;2022-09-20T05:11:11;0.60;;;0.50;;
57345;SDS011;43181;50.974;18.244;2022-09-20T05:17:04;2.50;;;2.10;;
57345;SDS011;43181;50.974;18.244;2022-09-20T05:25:04;3.20;;;1.60;;
57345;SDS011;43181;50.974;18.244;2022-09-20T05:27:57;1.30;;;1.20;;
57345;SDS011;43181;50.974;18.244;2022-09-20T05:30:35;3.70;;;2.40;;
57345;SDS011;43181;50.974;18.244;2022-09-20T05:33:51;4.90;;;3.00;;
57345;SDS011;43181;50.974;18.244;2022-09-20T05:41:29;1.90;;;1.70;;
57345;SDS011;43181;50.974;18.244;2022-09-20T05:44:23;1.70;;;1.50;;
57345;SDS011;43181;50.974;18.244;2022-09-20T05:58:23;1.10;;;1.10;;
57345;SDS011;43181;50.974;18.244;2022-09-20T06:01:16;0.70;;;0.70;;
57345;SDS011;43181;50.974;18.244;2022-09-20T06:03:50;0.90;;;0.90;;
57345;SDS011;43181;50.974;18.244;2022-09-20T06:06:30;1.30;;;1.20;;
57345;SDS011;43181;50.974;18.244;2022-09-20T06:17:36;2.40;;;1.70;;
57345;SDS011;43181;50.974;18.244;2022-09-20T06:22:38;1.80;;;1.70;;
57345;SDS011;43181;50.974;18.244;2022-09-20T06:27:33;4.40;;;1.90;;
57345;SDS011;43181;50.974;18.244;2022-09-20T06:30:05;1.80;;;1.70;;
57345;SDS011;43181;50.974;18.244;2022-09-20T06:32:32;2.40;;;1.30;;
57345;SDS011;43181;50.974;18.244;2022-09-20T06:34:59;2.90;;;1.40;;
57345;SDS011;43181;50.974;18.244;2022-09-20T06:37:33;1.00;;;0.90;;
57345;SDS011;43181;50.974;18.244;2022-09-20T06:43:29;0.60;;;0.60;;
57345;SDS011;43181;50.974;18.244;2022-09-20T06:45:56;1.10;;;0.90;;
57345;SDS011;43181;50.974;18.244;2022-09-20T06:48:22;2.50;;;2.30;;
57345;SDS011;43181;50.974;18.244;2022-09-20T06:50:49;1.20;;;1.10;;
57345;SDS011;43181;50.974;18.244;2022-09-20T06:53:17;3.60;;;2.20;;
57345;SDS011;43181;50.974;18.244;2022-09-20T06:55:44;4.20;;;2.20;;
57345;SDS011;43181;50.974;18.244;2022-09-20T06:58:11;5.70;;;2.40;;
57345;SDS011;43181;50.974;18.244;2022-09-20T07:00:36;3.10;;;1.60;;
57345;SDS011;43181;50.974;18.244;2022-09-20T07:03:04;3.10;;;1.60;;
57345;SDS011;43181;50.974;18.244;2022-09-20T07:05:30;3.80;;;2.10;;
57345;SDS011;43181;50.974;18.244;2022-09-20T07:07:56;3.00;;;1.30;;
57345;SDS011;43181;50.974;18.244;2022-09-20T07:10:24;3.40;;;1.40;;
57345;SDS011;43181;50.974;18.244;2022-09-20T07:12:59;3.70;;;2.70;;
57345;SDS011;43181;50.974;18.244;2022-09-20T07:15:26;2.50;;;1.70;;
57345;SDS011;43181;50.974;18.244;2022-09-20T07:20:26;3.50;;;2.00;;
57345;SDS011;43181;50.974;18.244;2022-09-20T07:22:52;3.70;;;2.90;;
57345;SDS011;43181;50.974;18.244;2022-09-20T07:25:18;9.70;;;2.80;;
57345;SDS011;43181;50.974;18.244;2022-09-20T07:27:44;4.80;;;2.20;;
57345;SDS011;43181;50.974;18.244;2022-09-20T07:30:11;2.70;;;2.30;;
57345;SDS011;43181;50.974;18.244;2022-09-20T07:32:38;4.30;;;1.60;;
57345;SDS011;43181;50.974;18.244;2022-09-20T07:35:09;1.40;;;0.70;;
57345;SDS011;43181;50.974;18.244;2022-09-20T07:37:36;3.70;;;1.10;;
57345;SDS011;43181;50.974;18.244;2022-09-20T07:40:06;5.60;;;3.10;;
57345;SDS011;43181;50.974;18.244;2022-09-20T07:42:32;3.80;;;2.50;;
57345;SDS011;43181;50.974;18.244;2022-09-20T07:44:58;1.70;;;0.80;;
57345;SDS011;43181;50.974;18.244;2022-09-20T07:51:08;2.50;;;2.00;;
57345;SDS011;43181;50.974;18.244;2022-09-20T07:53:36;4.00;;;1.70;;
57345;SDS011;43181;50.974;18.244;2022-09-20T07:56:03;3.00;;;2.10;;
57345;SDS011;43181;50.974;18.244;2022-09-20T07:58:38;0.90;;;0.90;;
57345;SDS011;43181;50.974;18.244;2022-09-20T08:01:05;0.90;;;0.90;;
57345;SDS011;43181;50.974;18.244;2022-09-20T08:03:32;1.00;;;0.90;;
57345;SDS011;43181;50.974;18.244;2022-09-20T08:06:03;1.20;;;0.80;;
57345;SDS011;43181;50.974;18.244;2022-09-20T08:08:34;0.70;;;0.70;;
57345;SDS011;43181;50.974;18.244;2022-09-20T08:11:04;2.00;;;1.50;;
57345;SDS011;43181;50.974;18.244;2022-09-20T08:13:35;1.20;;;0.90;;
57345;SDS011;43181;50.974;18.244;2022-09-20T08:16:05;4.20;;;1.60;;
57345;SDS011;43181;50.974;18.244;2022-09-20T08:18:32;1.00;;;1.00;;
57345;SDS011;43181;50.974;18.244;2022-09-20T08:21:06;1.30;;;1.20;;
57345;SDS011;43181;50.974;18.244;2022-09-20T08:23:33;0.80;;;0.70;;
57345;SDS011;43181;50.974;18.244;2022-09-20T08:25:59;4.80;;;2.90;;
57345;SDS011;43181;50.974;18.244;2022-09-20T08:28:26;2.20;;;1.80;;
57345;SDS011;43181;50.974;18.244;2022-09-20T08:30:59;3.80;;;1.20;;
57345;SDS011;43181;50.974;18.244;2022-09-20T08:33:28;0.80;;;0.60;;
57345;SDS011;43181;50.974;18.244;2022-09-20T08:36:02;1.10;;;1.10;;
57345;SDS011;43181;50.974;18.244;2022-09-20T08:38:31;2.00;;;1.70;;
57345;SDS011;43181;50.974;18.244;2022-09-20T11:13:10;0.60;;;0.50;;
57345;SDS011;43181;50.974;18.244;2022-09-20T11:15:39;0.80;;;0.70;;
57345;SDS011;43181;50.974;18.244;2022-09-20T11:18:51;1.00;;;0.50;;
57345;SDS011;43181;50.974;18.244;2022-09-20T11:21:30;0.40;;;0.40;;
57345;SDS011;43181;50.974;18.244;2022-09-20T11:26:50;0.90;;;0.30;;
57345;SDS011;43181;50.974;18.244;2022-09-20T11:29:27;1.80;;;0.40;;
57345;SDS011;43181;50.974;18.244;2022-09-20T11:32:40;1.00;;;0.60;;
57345;SDS011;43181;50.974;18.244;2022-09-20T11:37:21;2.50;;;0.60;;
57345;SDS011;43181;50.974;18.244;2022-09-20T11:40:19;1.30;;;0.40;;
57345;SDS011;43181;50.974;18.244;2022-09-20T11:43:00;0.80;;;0.50;;
57345;SDS011;43181;50.974;18.244;2022-09-20T11:45:45;0.50;;;0.50;;
57345;SDS011;43181;50.974;18.244;2022-09-20T11:48:37;0.70;;;0.60;;
57345;SDS011;43181;50.974;18.244;2022-09-20T11:57:27;0.30;;;0.30;;
57345;SDS011;43181;50.974;18.244;2022-09-20T11:59:53;0.30;;;0.30;;
57345;SDS011;43181;50.974;18.244;2022-09-20T12:02:25;0.60;;;0.50;;
57345;SDS011;43181;50.974;18.244;2022-09-20T12:04:58;0.60;;;0.60;;
57345;SDS011;43181;50.974;18.244;2022-09-20T12:12:44;1.20;;;0.90;;
57345;SDS011;43181;50.974;18.244;2022-09-20T12:28:47;1.40;;;0.70;;
57345;SDS011;43181;50.974;18.244;2022-09-20T12:33:56;0.90;;;0.40;;
57345;SDS011;43181;50.974;18.244;2022-09-20T12:36:22;0.40;;;0.20;;
57345;SDS011;43181;50.974;18.244;2022-09-20T12:38:50;0.70;;;0.60;;
57345;SDS011;43181;50.974;18.244;2022-09-20T12:41:20;0.80;;;0.30;;
57345;SDS011;43181;50.974;18.244;2022-09-20T12:43:48;0.30;;;0.20;;
57345;SDS011;43181;50.974;18.244;2022-09-20T12:46:18;0.20;;;0.20;;
57345;SDS011;43181;50.974;18.244;2022-09-20T12:48:46;0.40;;;0.40;;
57345;SDS011;43181;50.974;18.244;2022-09-20T12:51:22;0.50;;;0.50;;
57345;SDS011;43181;50.974;18.244;2022-09-20T12:54:11;0.30;;;0.30;;
57345;SDS011;43181;50.974;18.244;2022-09-20T12:56:38;2.00;;;0.60;;
57345;SDS011;43181;50.974;18.244;2022-09-20T12:59:05;1.50;;;0.90;;
57345;SDS011;43181;50.974;18.244;2022-09-20T13:01:48;2.90;;;0.40;;
57345;SDS011;43181;50.974;18.244;2022-09-20T13:09:58;3.40;;;0.60;;
57345;SDS011;43181;50.974;18.244;2022-09-20T13:12:25;0.60;;;0.50;;
57345;SDS011;43181;50.974;18.244;2022-09-20T13:14:51;1.10;;;1.00;;
57345;SDS011;43181;50.974;18.244;2022-09-20T13:17:18;1.00;;;0.50;;
57345;SDS011;43181;50.974;18.244;2022-09-20T13:22:19;2.60;;;1.10;;
57345;SDS011;43181;50.974;18.244;2022-09-20T13:24:48;0.60;;;0.60;;
57345;SDS011;43181;50.974;18.244;2022-09-20T13:27:31;0.20;;;0.20;;
57345;SDS011;43181;50.974;18.244;2022-09-20T13:33:13;1.00;;;0.40;;
57345;SDS011;43181;50.974;18.244;2022-09-20T13:35:41;0.30;;;0.30;;
57345;SDS011;43181;50.974;18.244;2022-09-20T13:38:09;0.60;;;0.40;;
57345;SDS011;43181;50.974;18.244;2022-09-20T13:40:36;0.50;;;0.30;;
57345;SDS011;43181;50.974;18.244;2022-09-20T13:45:53;0.60;;;0.30;;
57345;SDS011;43181;50.974;18.244;2022-09-20T13:48:27;0.90;;;0.30;;
57345;SDS011;43181;50.974;18.244;2022-09-20T13:50:55;1.10;;;0.70;;
57345;SDS011;43181;50.974;18.244;2022-09-20T13:53:22;0.90;;;0.70;;
57345;SDS011;43181;50.974;18.244;2022-09-20T13:55:49;0.80;;;0.60;;
57345;SDS011;43181;50.974;18.244;2022-09-20T14:00:53;0.60;;;0.50;;
57345;SDS011;43181;50.974;18.244;2022-09-20T14:03:20;1.60;;;1.10;;
57345;SDS011;43181;50.974;18.244;2022-09-20T14:05:50;1.50;;;0.90;;
57345;SDS011;43181;50.974;18.244;2022-09-20T14:08:20;3.60;;;0.80;;
57345;SDS011;43181;50.974;18.244;2022-09-20T14:13:56;0.70;;;0.70;;
57345;SDS011;43181;50.974;18.244;2022-09-20T14:16:42;0.80;;;0.60;;
57345;SDS011;43181;50.974;18.244;2022-09-20T14:19:16;0.60;;;0.50;;
57345;SDS011;43181;50.974;18.244;2022-09-20T14:21:46;0.60;;;0.60;;
57345;SDS011;43181;50.974;18.244;2022-09-20T14:26:38;0.70;;;0.70;;
57345;SDS011;43181;50.974;18.244;2022-09-20T14:31:56;0.60;;;0.60;;
57345;SDS011;43181;50.974;18.244;2022-09-20T14:34:24;0.60;;;0.40;;
57345;SDS011;43181;50.974;18.244;2022-09-20T14:36:50;0.50;;;0.50;;
57345;SDS011;43181;50.974;18.244;2022-09-20T14:39:24;0.80;;;0.50;;
57345;SDS011;43181;50.974;18.244;2022-09-20T14:41:49;0.50;;;0.50;;
57345;SDS011;43181;50.974;18.244;2022-09-20T14:46:56;0.60;;;0.60;;
57345;SDS011;43181;50.974;18.244;2022-09-20T14:51:52;1.00;;;0.40;;
57345;SDS011;43181;50.974;18.244;2022-09-20T14:56:47;0.60;;;0.50;;
57345;SDS011;43181;50.974;18.244;2022-09-20T15:01:40;0.40;;;0.30;;
57345;SDS011;43181;50.974;18.244;2022-09-20T15:04:20;0.60;;;0.40;;
57345;SDS011;43181;50.974;18.244;2022-09-20T15:06:46;0.30;;;0.30;;
57345;SDS011;43181;50.974;18.244;2022-09-20T15:09:13;0.20;;;0.20;;
57345;SDS011;43181;50.974;18.244;2022-09-20T15:11:39;0.20;;;0.20;;
57345;SDS011;43181;50.974;18.244;2022-09-20T15:14:05;0.10;;;0.10;;
57345;SDS011;43181;50.974;18.244;2022-09-20T15:16:31;0.40;;;0.40;;
57345;SDS011;43181;50.974;18.244;2022-09-20T15:18:57;1.40;;;0.40;;
57345;SDS011;43181;50.974;18.244;2022-09-20T15:21:23;0.30;;;0.30;;
57345;SDS011;43181;50.974;18.244;2022-09-20T15:23:48;0.70;;;0.30;;
57345;SDS011;43181;50.974;18.244;2022-09-20T15:26:14;0.20;;;0.20;;
57345;SDS011;43181;50.974;18.244;2022-09-20T15:28:41;0.70;;;0.50;;
57345;SDS011;43181;50.974;18.244;2022-09-20T15:31:08;0.30;;;0.30;;
57345;SDS011;43181;50.974;18.244;2022-09-20T15:33:34;0.10;;;0.10;;
57345;SDS011;43181;50.974;18.244;2022-09-20T15:36:00;0.80;;;0.30;;
57345;SDS011;43181;50.974;18.244;2022-09-20T15:38:27;0.60;;;0.20;;
57345;SDS011;43181;50.974;18.244;2022-09-20T15:40:52;0.30;;;0.30;;
57345;SDS011;43181;50.974;18.244;2022-09-20T15:43:19;0.20;;;0.20;;
57345;SDS011;43181;50.974;18.244;2022-09-20T15:45:52;0.40;;;0.30;;
57345;SDS011;43181;50.974;18.244;2022-09-20T15:48:21;0.20;;;0.20;;
